sensor_id;sensor_type;location;lat;lon;timestamp;P1;durP1;ratioP1;P2;durP2;ratioP2
26756;SDS011;23848;49.798;10.228;2023-04-09T00:01:37;16.90;;;11.45;;
26756;SDS011;23848;49.798;10.228;2023-04-09T00:04:17;18.65;;;11.80;;
26756;SDS011;23848;49.798;10.228;2023-04-09T00:06:54;19.33;;;11.60;;
26756;SDS011;23848;49.798;10.228;2023-04-09T00:09:33;19.30;;;12.27;;
26756;SDS011;23848;49.798;10.228;2023-04-09T00:12:06;19.85;;;12.02;;
26756;SDS011;23848;49.798;10.228;2023-04-09T00:14:40;19.10;;;12.60;;
26756;SDS011;23848;49.798;10.228;2023-04-09T00:17:20;16.23;;;10.07;;
26756;SDS011;23848;49.798;10.228;2023-04-09T00:19:50;17.95;;;11.48;;
26756;SDS011;23848;49.798;10.228;2023-04-09T00:22:19;17.45;;;11.60;;
26756;SDS011;23848;49.798;10.228;2023-04-09T00:24:55;18.95;;;11.95;;
26756;SDS011;23848;49.798;10.228;2023-04-09T00:27:26;20.08;;;11.70;;
26756;SDS011;23848;49.798;10.228;2023-04-09T00:29:57;21.17;;;12.32;;
26756;SDS011;23848;49.798;10.228;2023-04-09T00:32:29;19.10;;;11.98;;
26756;SDS011;23848;49.798;10.228;2023-04-09T00:35:07;22.67;;;14.20;;
26756;SDS011;23848;49.798;10.228;2023-04-09T00:37:48;28.00;;;17.98;;
26756;SDS011;23848;49.798;10.228;2023-04-09T00:42:56;20.70;;;13.02;;
26756;SDS011;23848;49.798;10.228;2023-04-09T00:45:26;19.17;;;12.13;;
26756;SDS011;23848;49.798;10.228;2023-04-09T00:47:55;23.27;;;14.23;;
26756;SDS011;23848;49.798;10.228;2023-04-09T00:50:30;23.05;;;14.63;;
26756;SDS011;23848;49.798;10.228;2023-04-09T00:53:07;23.48;;;15.55;;
26756;SDS011;23848;49.798;10.228;2023-04-09T00:55:39;22.58;;;14.52;;
26756;SDS011;23848;49.798;10.228;2023-04-09T00:58:10;23.10;;;14.52;;
26756;SDS011;23848;49.798;10.228;2023-04-09T01:00:39;24.58;;;15.98;;
26756;SDS011;23848;49.798;10.228;2023-04-09T01:03:09;21.20;;;13.43;;
26756;SDS011;23848;49.798;10.228;2023-04-09T01:05:43;19.17;;;12.47;;
26756;SDS011;23848;49.798;10.228;2023-04-09T01:08:29;20.30;;;12.65;;
26756;SDS011;23848;49.798;10.228;2023-04-09T01:11:05;21.67;;;12.00;;
26756;SDS011;23848;49.798;10.228;2023-04-09T01:13:50;20.48;;;12.25;;
26756;SDS011;23848;49.798;10.228;2023-04-09T01:16:27;19.33;;;11.98;;
26756;SDS011;23848;49.798;10.228;2023-04-09T01:19:00;20.75;;;13.15;;
26756;SDS011;23848;49.798;10.228;2023-04-09T01:21:33;20.48;;;12.75;;
26756;SDS011;23848;49.798;10.228;2023-04-09T01:24:20;19.90;;;12.30;;
26756;SDS011;23848;49.798;10.228;2023-04-09T01:27:01;20.63;;;12.60;;
26756;SDS011;23848;49.798;10.228;2023-04-09T01:29:38;20.17;;;12.43;;
26756;SDS011;23848;49.798;10.228;2023-04-09T01:32:11;19.17;;;12.35;;
26756;SDS011;23848;49.798;10.228;2023-04-09T01:34:50;21.90;;;13.43;;
26756;SDS011;23848;49.798;10.228;2023-04-09T01:37:32;20.60;;;13.23;;
26756;SDS011;23848;49.798;10.228;2023-04-09T01:40:07;23.90;;;14.00;;
26756;SDS011;23848;49.798;10.228;2023-04-09T01:42:43;20.55;;;12.18;;
26756;SDS011;23848;49.798;10.228;2023-04-09T01:45:27;21.15;;;13.00;;
26756;SDS011;23848;49.798;10.228;2023-04-09T01:48:02;19.27;;;11.90;;
26756;SDS011;23848;49.798;10.228;2023-04-09T01:50:33;20.73;;;13.05;;
26756;SDS011;23848;49.798;10.228;2023-04-09T01:53:06;19.52;;;12.50;;
26756;SDS011;23848;49.798;10.228;2023-04-09T01:55:38;19.98;;;13.13;;
26756;SDS011;23848;49.798;10.228;2023-04-09T01:58:12;20.38;;;12.27;;
26756;SDS011;23848;49.798;10.228;2023-04-09T02:00:44;18.80;;;11.50;;
26756;SDS011;23848;49.798;10.228;2023-04-09T02:03:43;17.92;;;11.80;;
26756;SDS011;23848;49.798;10.228;2023-04-09T02:06:20;21.10;;;13.32;;
26756;SDS011;23848;49.798;10.228;2023-04-09T02:09:08;20.77;;;13.68;;
26756;SDS011;23848;49.798;10.228;2023-04-09T02:11:40;21.90;;;13.57;;
26756;SDS011;23848;49.798;10.228;2023-04-09T02:14:18;23.45;;;14.45;;
26756;SDS011;23848;49.798;10.228;2023-04-09T02:16:50;23.50;;;14.68;;
26756;SDS011;23848;49.798;10.228;2023-04-09T02:19:27;22.85;;;13.40;;
26756;SDS011;23848;49.798;10.228;2023-04-09T02:22:05;23.45;;;13.32;;
26756;SDS011;23848;49.798;10.228;2023-04-09T02:24:37;21.23;;;12.85;;
26756;SDS011;23848;49.798;10.228;2023-04-09T02:27:14;21.75;;;13.45;;
26756;SDS011;23848;49.798;10.228;2023-04-09T02:29:46;21.75;;;13.50;;
26756;SDS011;23848;49.798;10.228;2023-04-09T02:32:18;21.30;;;13.65;;
26756;SDS011;23848;49.798;10.228;2023-04-09T02:34:48;23.05;;;14.77;;
26756;SDS011;23848;49.798;10.228;2023-04-09T02:37:17;23.23;;;14.07;;
26756;SDS011;23848;49.798;10.228;2023-04-09T02:39:45;23.42;;;14.02;;
26756;SDS011;23848;49.798;10.228;2023-04-09T02:42:18;23.17;;;13.45;;
26756;SDS011;23848;49.798;10.228;2023-04-09T02:44:51;20.98;;;13.88;;
26756;SDS011;23848;49.798;10.228;2023-04-09T02:47:23;24.63;;;14.93;;
26756;SDS011;23848;49.798;10.228;2023-04-09T02:49:53;23.40;;;14.25;;
26756;SDS011;23848;49.798;10.228;2023-04-09T02:52:23;19.92;;;13.20;;
26756;SDS011;23848;49.798;10.228;2023-04-09T02:54:55;21.50;;;13.77;;
26756;SDS011;23848;49.798;10.228;2023-04-09T02:57:29;22.35;;;14.02;;
26756;SDS011;23848;49.798;10.228;2023-04-09T03:00:02;23.73;;;14.68;;
26756;SDS011;23848;49.798;10.228;2023-04-09T03:02:32;21.75;;;14.18;;
26756;SDS011;23848;49.798;10.228;2023-04-09T03:05:01;24.48;;;14.73;;
26756;SDS011;23848;49.798;10.228;2023-04-09T03:10:07;23.50;;;13.80;;
26756;SDS011;23848;49.798;10.228;2023-04-09T03:12:38;26.55;;;15.43;;
26756;SDS011;23848;49.798;10.228;2023-04-09T03:15:16;22.58;;;13.80;;
26756;SDS011;23848;49.798;10.228;2023-04-09T03:17:50;23.08;;;14.07;;
26756;SDS011;23848;49.798;10.228;2023-04-09T03:20:23;25.08;;;15.10;;
26756;SDS011;23848;49.798;10.228;2023-04-09T03:22:52;23.77;;;14.77;;
26756;SDS011;23848;49.798;10.228;2023-04-09T03:25:25;25.15;;;15.13;;
26756;SDS011;23848;49.798;10.228;2023-04-09T03:28:06;24.30;;;14.98;;
26756;SDS011;23848;49.798;10.228;2023-04-09T03:30:37;25.65;;;14.70;;
26756;SDS011;23848;49.798;10.228;2023-04-09T03:36:04;24.98;;;15.57;;
26756;SDS011;23848;49.798;10.228;2023-04-09T03:38:35;21.63;;;14.23;;
26756;SDS011;23848;49.798;10.228;2023-04-09T03:41:06;23.05;;;15.02;;
26756;SDS011;23848;49.798;10.228;2023-04-09T03:43:42;25.05;;;15.30;;
26756;SDS011;23848;49.798;10.228;2023-04-09T03:46:11;23.83;;;14.32;;
26756;SDS011;23848;49.798;10.228;2023-04-09T03:48:45;25.88;;;15.10;;
26756;SDS011;23848;49.798;10.228;2023-04-09T03:51:19;25.63;;;15.25;;
26756;SDS011;23848;49.798;10.228;2023-04-09T03:53:48;21.35;;;14.70;;
26756;SDS011;23848;49.798;10.228;2023-04-09T03:56:17;23.55;;;14.65;;
26756;SDS011;23848;49.798;10.228;2023-04-09T03:58:46;25.13;;;15.35;;
26756;SDS011;23848;49.798;10.228;2023-04-09T04:01:16;23.23;;;14.60;;
26756;SDS011;23848;49.798;10.228;2023-04-09T04:03:57;24.55;;;14.07;;
26756;SDS011;23848;49.798;10.228;2023-04-09T04:06:28;24.67;;;15.10;;
26756;SDS011;23848;49.798;10.228;2023-04-09T04:08:57;25.17;;;14.88;;
26756;SDS011;23848;49.798;10.228;2023-04-09T04:11:27;27.73;;;14.85;;
26756;SDS011;23848;49.798;10.228;2023-04-09T04:13:56;22.50;;;14.23;;
26756;SDS011;23848;49.798;10.228;2023-04-09T04:16:25;22.40;;;14.30;;
26756;SDS011;23848;49.798;10.228;2023-04-09T04:18:54;21.33;;;13.65;;
26756;SDS011;23848;49.798;10.228;2023-04-09T04:21:23;23.63;;;14.32;;
26756;SDS011;23848;49.798;10.228;2023-04-09T04:23:59;23.30;;;14.30;;
26756;SDS011;23848;49.798;10.228;2023-04-09T04:26:28;22.03;;;13.87;;
26756;SDS011;23848;49.798;10.228;2023-04-09T04:28:57;20.42;;;13.45;;
26756;SDS011;23848;49.798;10.228;2023-04-09T04:31:26;18.40;;;12.10;;
26756;SDS011;23848;49.798;10.228;2023-04-09T04:33:55;21.08;;;13.00;;
26756;SDS011;23848;49.798;10.228;2023-04-09T04:36:32;21.52;;;13.27;;
26756;SDS011;23848;49.798;10.228;2023-04-09T04:39:05;18.63;;;12.45;;
26756;SDS011;23848;49.798;10.228;2023-04-09T04:41:40;19.88;;;12.35;;
26756;SDS011;23848;49.798;10.228;2023-04-09T04:44:10;23.95;;;14.15;;
26756;SDS011;23848;49.798;10.228;2023-04-09T04:46:44;22.45;;;13.35;;
26756;SDS011;23848;49.798;10.228;2023-04-09T04:49:15;21.63;;;14.00;;
26756;SDS011;23848;49.798;10.228;2023-04-09T04:51:44;23.05;;;14.48;;
26756;SDS011;23848;49.798;10.228;2023-04-09T04:54:15;22.98;;;14.27;;
26756;SDS011;23848;49.798;10.228;2023-04-09T04:56:55;22.25;;;13.88;;
26756;SDS011;23848;49.798;10.228;2023-04-09T04:59:24;22.88;;;14.38;;
26756;SDS011;23848;49.798;10.228;2023-04-09T05:01:53;21.80;;;13.23;;
26756;SDS011;23848;49.798;10.228;2023-04-09T05:04:30;21.65;;;13.70;;
26756;SDS011;23848;49.798;10.228;2023-04-09T05:07:12;22.50;;;14.30;;
26756;SDS011;23848;49.798;10.228;2023-04-09T05:09:50;22.98;;;14.18;;
26756;SDS011;23848;49.798;10.228;2023-04-09T05:12:21;22.63;;;14.30;;
26756;SDS011;23848;49.798;10.228;2023-04-09T05:14:56;22.83;;;14.93;;
26756;SDS011;23848;49.798;10.228;2023-04-09T05:17:26;27.17;;;15.57;;
26756;SDS011;23848;49.798;10.228;2023-04-09T05:19:59;24.98;;;15.85;;
26756;SDS011;23848;49.798;10.228;2023-04-09T05:22:43;24.63;;;14.98;;
26756;SDS011;23848;49.798;10.228;2023-04-09T05:25:16;22.35;;;14.25;;
26756;SDS011;23848;49.798;10.228;2023-04-09T05:27:51;26.67;;;15.85;;
26756;SDS011;23848;49.798;10.228;2023-04-09T05:30:20;29.08;;;17.65;;
26756;SDS011;23848;49.798;10.228;2023-04-09T05:32:54;25.58;;;15.75;;
26756;SDS011;23848;49.798;10.228;2023-04-09T05:35:23;26.05;;;16.77;;
26756;SDS011;23848;49.798;10.228;2023-04-09T05:37:57;23.23;;;14.80;;
26756;SDS011;23848;49.798;10.228;2023-04-09T05:40:33;22.85;;;14.40;;
26756;SDS011;23848;49.798;10.228;2023-04-09T05:43:10;23.05;;;14.07;;
26756;SDS011;23848;49.798;10.228;2023-04-09T05:45:39;25.67;;;16.05;;
26756;SDS011;23848;49.798;10.228;2023-04-09T05:48:09;25.67;;;15.95;;
26756;SDS011;23848;49.798;10.228;2023-04-09T05:50:47;24.77;;;15.95;;
26756;SDS011;23848;49.798;10.228;2023-04-09T05:53:21;23.00;;;14.73;;
26756;SDS011;23848;49.798;10.228;2023-04-09T05:55:59;22.73;;;13.07;;
26756;SDS011;23848;49.798;10.228;2023-04-09T05:58:28;22.30;;;13.73;;
26756;SDS011;23848;49.798;10.228;2023-04-09T06:01:01;25.40;;;14.65;;
26756;SDS011;23848;49.798;10.228;2023-04-09T06:03:39;26.08;;;15.85;;
26756;SDS011;23848;49.798;10.228;2023-04-09T06:06:21;26.30;;;15.55;;
26756;SDS011;23848;49.798;10.228;2023-04-09T06:09:07;24.52;;;15.13;;
26756;SDS011;23848;49.798;10.228;2023-04-09T06:11:46;24.40;;;15.45;;
26756;SDS011;23848;49.798;10.228;2023-04-09T06:14:17;25.42;;;15.75;;
26756;SDS011;23848;49.798;10.228;2023-04-09T06:16:52;27.15;;;15.40;;
26756;SDS011;23848;49.798;10.228;2023-04-09T06:19:21;28.20;;;15.98;;
26756;SDS011;23848;49.798;10.228;2023-04-09T06:22:07;25.45;;;16.38;;
26756;SDS011;23848;49.798;10.228;2023-04-09T06:24:42;24.40;;;14.90;;
26756;SDS011;23848;49.798;10.228;2023-04-09T06:27:26;27.95;;;15.38;;
26756;SDS011;23848;49.798;10.228;2023-04-09T06:30:06;24.85;;;16.00;;
26756;SDS011;23848;49.798;10.228;2023-04-09T06:33:02;26.45;;;16.55;;
26756;SDS011;23848;49.798;10.228;2023-04-09T06:35:34;24.70;;;15.43;;
26756;SDS011;23848;49.798;10.228;2023-04-09T06:38:07;24.75;;;15.25;;
26756;SDS011;23848;49.798;10.228;2023-04-09T06:40:38;23.10;;;14.45;;
26756;SDS011;23848;49.798;10.228;2023-04-09T06:43:19;23.60;;;14.80;;
26756;SDS011;23848;49.798;10.228;2023-04-09T06:46:07;21.83;;;13.70;;
26756;SDS011;23848;49.798;10.228;2023-04-09T06:48:48;23.05;;;14.77;;
26756;SDS011;23848;49.798;10.228;2023-04-09T06:51:28;24.20;;;14.30;;
26756;SDS011;23848;49.798;10.228;2023-04-09T06:54:10;21.27;;;13.60;;
26756;SDS011;23848;49.798;10.228;2023-04-09T06:56:53;21.60;;;13.55;;
26756;SDS011;23848;49.798;10.228;2023-04-09T06:59:43;20.92;;;13.50;;
26756;SDS011;23848;49.798;10.228;2023-04-09T07:02:21;22.77;;;13.18;;
26756;SDS011;23848;49.798;10.228;2023-04-09T07:05:45;22.25;;;14.20;;
26756;SDS011;23848;49.798;10.228;2023-04-09T07:08:18;22.10;;;13.15;;
26756;SDS011;23848;49.798;10.228;2023-04-09T07:32:36;18.45;;;12.63;;
26756;SDS011;23848;49.798;10.228;2023-04-09T07:35:34;17.45;;;12.52;;
26756;SDS011;23848;49.798;10.228;2023-04-09T07:42:10;18.02;;;12.57;;
26756;SDS011;23848;49.798;10.228;2023-04-09T07:51:37;19.48;;;11.23;;
26756;SDS011;23848;49.798;10.228;2023-04-09T07:55:31;15.82;;;11.55;;
26756;SDS011;23848;49.798;10.228;2023-04-09T07:58:21;16.90;;;11.68;;
26756;SDS011;23848;49.798;10.228;2023-04-09T08:11:59;18.17;;;11.30;;
26756;SDS011;23848;49.798;10.228;2023-04-09T18:59:07;8.27;;;6.15;;
26756;SDS011;23848;49.798;10.228;2023-04-09T19:02:05;9.25;;;6.50;;
26756;SDS011;23848;49.798;10.228;2023-04-09T19:08:11;20.05;;;14.23;;
26756;SDS011;23848;49.798;10.228;2023-04-09T19:10:52;13.30;;;8.20;;
26756;SDS011;23848;49.798;10.228;2023-04-09T19:16:46;13.30;;;9.75;;
26756;SDS011;23848;49.798;10.228;2023-04-09T19:22:52;13.65;;;9.25;;
26756;SDS011;23848;49.798;10.228;2023-04-09T19:26:22;11.60;;;9.10;;
26756;SDS011;23848;49.798;10.228;2023-04-09T19:29:13;12.90;;;9.63;;
26756;SDS011;23848;49.798;10.228;2023-04-09T19:31:54;13.73;;;10.45;;
26756;SDS011;23848;49.798;10.228;2023-04-09T19:38:23;11.98;;;8.70;;
26756;SDS011;23848;49.798;10.228;2023-04-09T19:41:28;13.00;;;8.52;;
26756;SDS011;23848;49.798;10.228;2023-04-09T19:44:26;12.00;;;8.20;;
26756;SDS011;23848;49.798;10.228;2023-04-09T19:47:23;10.10;;;7.57;;
26756;SDS011;23848;49.798;10.228;2023-04-09T19:50:02;11.00;;;7.47;;
26756;SDS011;23848;49.798;10.228;2023-04-09T19:52:54;10.32;;;7.05;;
26756;SDS011;23848;49.798;10.228;2023-04-09T19:55:31;10.18;;;7.43;;
26756;SDS011;23848;49.798;10.228;2023-04-09T19:58:25;11.23;;;7.43;;
26756;SDS011;23848;49.798;10.228;2023-04-09T20:01:24;9.50;;;6.50;;
26756;SDS011;23848;49.798;10.228;2023-04-09T20:04:03;9.75;;;5.88;;
26756;SDS011;23848;49.798;10.228;2023-04-09T20:06:37;10.55;;;6.50;;
26756;SDS011;23848;49.798;10.228;2023-04-09T20:09:23;11.38;;;7.25;;
26756;SDS011;23848;49.798;10.228;2023-04-09T20:11:57;10.73;;;7.80;;
26756;SDS011;23848;49.798;10.228;2023-04-09T20:14:40;12.40;;;8.82;;
26756;SDS011;23848;49.798;10.228;2023-04-09T20:17:27;12.65;;;9.23;;
26756;SDS011;23848;49.798;10.228;2023-04-09T20:20:17;13.35;;;8.70;;
26756;SDS011;23848;49.798;10.228;2023-04-09T20:22:53;10.52;;;7.78;;
26756;SDS011;23848;49.798;10.228;2023-04-09T20:25:38;9.32;;;7.38;;
26756;SDS011;23848;49.798;10.228;2023-04-09T20:28:12;11.90;;;8.35;;
26756;SDS011;23848;49.798;10.228;2023-04-09T20:30:49;10.32;;;6.97;;
26756;SDS011;23848;49.798;10.228;2023-04-09T20:33:33;10.15;;;6.93;;
26756;SDS011;23848;49.798;10.228;2023-04-09T20:36:18;11.68;;;7.55;;
26756;SDS011;23848;49.798;10.228;2023-04-09T20:41:47;9.70;;;7.07;;
26756;SDS011;23848;49.798;10.228;2023-04-09T20:44:21;10.20;;;6.95;;
26756;SDS011;23848;49.798;10.228;2023-04-09T20:46:58;10.18;;;7.40;;
26756;SDS011;23848;49.798;10.228;2023-04-09T20:49:29;9.00;;;6.63;;
26756;SDS011;23848;49.798;10.228;2023-04-09T20:54:56;9.85;;;6.90;;
26756;SDS011;23848;49.798;10.228;2023-04-09T20:57:31;9.60;;;6.78;;
26756;SDS011;23848;49.798;10.228;2023-04-09T21:00:00;10.15;;;7.18;;
26756;SDS011;23848;49.798;10.228;2023-04-09T21:02:39;10.38;;;6.57;;
26756;SDS011;23848;49.798;10.228;2023-04-09T21:05:17;9.60;;;6.72;;
26756;SDS011;23848;49.798;10.228;2023-04-09T21:07:49;10.70;;;7.00;;
26756;SDS011;23848;49.798;10.228;2023-04-09T21:10:22;11.18;;;7.00;;
26756;SDS011;23848;49.798;10.228;2023-04-09T21:12:52;10.82;;;6.75;;
26756;SDS011;23848;49.798;10.228;2023-04-09T21:15:23;11.10;;;7.57;;
26756;SDS011;23848;49.798;10.228;2023-04-09T21:17:59;13.07;;;7.05;;
26756;SDS011;23848;49.798;10.228;2023-04-09T21:20:29;10.38;;;6.88;;
26756;SDS011;23848;49.798;10.228;2023-04-09T21:23:22;8.98;;;6.25;;
26756;SDS011;23848;49.798;10.228;2023-04-09T21:26:06;9.95;;;6.80;;
26756;SDS011;23848;49.798;10.228;2023-04-09T21:28:43;9.88;;;6.57;;
26756;SDS011;23848;49.798;10.228;2023-04-09T21:32:27;9.90;;;7.03;;
26756;SDS011;23848;49.798;10.228;2023-04-09T21:35:15;12.70;;;7.07;;
26756;SDS011;23848;49.798;10.228;2023-04-09T21:37:49;12.93;;;7.93;;
26756;SDS011;23848;49.798;10.228;2023-04-09T21:40:20;11.25;;;7.25;;
26756;SDS011;23848;49.798;10.228;2023-04-09T21:42:55;10.45;;;6.88;;
26756;SDS011;23848;49.798;10.228;2023-04-09T21:45:43;9.52;;;6.50;;
26756;SDS011;23848;49.798;10.228;2023-04-09T21:54:28;10.05;;;6.53;;
26756;SDS011;23848;49.798;10.228;2023-04-09T21:56:59;10.63;;;7.13;;
26756;SDS011;23848;49.798;10.228;2023-04-09T22:02:36;10.63;;;6.78;;
26756;SDS011;23848;49.798;10.228;2023-04-09T22:05:07;10.43;;;7.45;;
26756;SDS011;23848;49.798;10.228;2023-04-09T22:07:37;13.20;;;8.43;;
26756;SDS011;23848;49.798;10.228;2023-04-09T22:10:08;13.93;;;8.95;;
26756;SDS011;23848;49.798;10.228;2023-04-09T22:12:40;12.55;;;8.35;;
26756;SDS011;23848;49.798;10.228;2023-04-09T22:15:09;13.73;;;8.55;;
26756;SDS011;23848;49.798;10.228;2023-04-09T22:17:41;14.93;;;9.32;;
26756;SDS011;23848;49.798;10.228;2023-04-09T22:20:09;13.70;;;8.20;;
26756;SDS011;23848;49.798;10.228;2023-04-09T22:22:38;13.32;;;8.75;;
26756;SDS011;23848;49.798;10.228;2023-04-09T22:25:08;11.98;;;8.07;;
26756;SDS011;23848;49.798;10.228;2023-04-09T22:27:37;12.15;;;8.38;;
26756;SDS011;23848;49.798;10.228;2023-04-09T22:30:07;12.90;;;7.80;;
26756;SDS011;23848;49.798;10.228;2023-04-09T22:32:36;10.80;;;8.02;;
26756;SDS011;23848;49.798;10.228;2023-04-09T22:35:13;11.93;;;7.95;;
26756;SDS011;23848;49.798;10.228;2023-04-09T22:37:44;11.57;;;7.55;;
26756;SDS011;23848;49.798;10.228;2023-04-09T22:40:14;11.32;;;7.97;;
26756;SDS011;23848;49.798;10.228;2023-04-09T22:42:44;12.20;;;8.02;;
26756;SDS011;23848;49.798;10.228;2023-04-09T22:45:15;13.52;;;8.18;;
26756;SDS011;23848;49.798;10.228;2023-04-09T22:47:44;13.85;;;8.73;;
26756;SDS011;23848;49.798;10.228;2023-04-09T22:50:17;12.63;;;8.80;;
26756;SDS011;23848;49.798;10.228;2023-04-09T22:52:46;14.60;;;9.38;;
26756;SDS011;23848;49.798;10.228;2023-04-09T22:55:18;15.57;;;10.27;;
26756;SDS011;23848;49.798;10.228;2023-04-09T22:57:48;16.05;;;10.23;;
26756;SDS011;23848;49.798;10.228;2023-04-09T23:00:17;17.42;;;11.13;;
26756;SDS011;23848;49.798;10.228;2023-04-09T23:02:48;15.23;;;10.57;;
26756;SDS011;23848;49.798;10.228;2023-04-09T23:05:21;20.65;;;12.45;;
26756;SDS011;23848;49.798;10.228;2023-04-09T23:07:50;18.70;;;11.32;;
26756;SDS011;23848;49.798;10.228;2023-04-09T23:10:24;17.53;;;11.27;;
26756;SDS011;23848;49.798;10.228;2023-04-09T23:12:55;17.75;;;11.23;;
26756;SDS011;23848;49.798;10.228;2023-04-09T23:15:23;19.83;;;11.07;;
26756;SDS011;23848;49.798;10.228;2023-04-09T23:17:52;20.42;;;11.20;;
26756;SDS011;23848;49.798;10.228;2023-04-09T23:20:27;24.25;;;13.70;;
26756;SDS011;23848;49.798;10.228;2023-04-09T23:23:13;16.33;;;10.65;;
26756;SDS011;23848;49.798;10.228;2023-04-09T23:25:42;15.75;;;10.20;;
26756;SDS011;23848;49.798;10.228;2023-04-09T23:28:11;15.90;;;10.23;;
26756;SDS011;23848;49.798;10.228;2023-04-09T23:30:40;17.48;;;10.45;;
26756;SDS011;23848;49.798;10.228;2023-04-09T23:33:11;16.67;;;10.02;;
26756;SDS011;23848;49.798;10.228;2023-04-09T23:35:41;17.35;;;10.68;;
26756;SDS011;23848;49.798;10.228;2023-04-09T23:38:14;14.88;;;8.75;;
26756;SDS011;23848;49.798;10.228;2023-04-09T23:40:43;15.48;;;9.85;;
26756;SDS011;23848;49.798;10.228;2023-04-09T23:43:13;17.73;;;10.73;;
26756;SDS011;23848;49.798;10.228;2023-04-09T23:45:42;18.55;;;10.73;;
26756;SDS011;23848;49.798;10.228;2023-04-09T23:48:12;12.75;;;8.80;;
26756;SDS011;23848;49.798;10.228;2023-04-09T23:50:43;12.35;;;8.38;;
26756;SDS011;23848;49.798;10.228;2023-04-09T23:53:16;12.50;;;8.05;;
26756;SDS011;23848;49.798;10.228;2023-04-09T23:55:46;13.10;;;8.32;;
26756;SDS011;23848;49.798;10.228;2023-04-09T23:58:22;11.65;;;7.72;;
